sensor_id;sensor_type;location;lat;lon;timestamp;temperature;humidity
9658;DHT22;4867;48.112;11.622;2022-09-16T00:00:57;14.30;99.90
9658;DHT22;4867;48.112;11.622;2022-09-16T00:03:25;14.40;99.90
9658;DHT22;4867;48.112;11.622;2022-09-16T00:05:53;14.40;99.90
9658;DHT22;4867;48.112;11.622;2022-09-16T00:08:20;14.40;99.90
9658;DHT22;4867;48.112;11.622;2022-09-16T00:10:50;14.40;99.90
9658;DHT22;4867;48.112;11.622;2022-09-16T00:13:18;14.40;99.90
9658;DHT22;4867;48.112;11.622;2022-09-16T00:15:47;14.40;99.90
9658;DHT22;4867;48.112;11.622;2022-09-16T00:18:17;14.40;99.90
9658;DHT22;4867;48.112;11.622;2022-09-16T00:20:49;14.40;99.90
9658;DHT22;4867;48.112;11.622;2022-09-16T00:23:18;14.30;99.90
9658;DHT22;4867;48.112;11.622;2022-09-16T00:25:50;14.30;99.90
9658;DHT22;4867;48.112;11.622;2022-09-16T00:28:20;14.30;99.90
9658;DHT22;4867;48.112;11.622;2022-09-16T00:30:48;14.30;99.90
9658;DHT22;4867;48.112;11.622;2022-09-16T00:33:17;14.30;99.90
9658;DHT22;4867;48.112;11.622;2022-09-16T00:35:45;14.30;99.90
9658;DHT22;4867;48.112;11.622;2022-09-16T00:38:15;14.30;99.90
9658;DHT22;4867;48.112;11.622;2022-09-16T00:40:44;14.30;99.90
9658;DHT22;4867;48.112;11.622;2022-09-16T00:43:14;14.40;99.90
9658;DHT22;4867;48.112;11.622;2022-09-16T00:45:45;14.40;99.90
9658;DHT22;4867;48.112;11.622;2022-09-16T00:48:18;14.30;99.90
9658;DHT22;4867;48.112;11.622;2022-09-16T00:50:55;14.30;99.90
9658;DHT22;4867;48.112;11.622;2022-09-16T00:53:30;14.30;99.90
9658;DHT22;4867;48.112;11.622;2022-09-16T00:56:01;14.30;99.90
9658;DHT22;4867;48.112;11.622;2022-09-16T00:58:42;14.30;99.90
9658;DHT22;4867;48.112;11.622;2022-09-16T01:01:10;14.30;99.90
9658;DHT22;4867;48.112;11.622;2022-09-16T01:04:02;14.20;99.90
9658;DHT22;4867;48.112;11.622;2022-09-16T01:06:34;14.40;99.90
9658;DHT22;4867;48.112;11.622;2022-09-16T01:09:05;14.20;99.90
9658;DHT22;4867;48.112;11.622;2022-09-16T01:11:33;14.20;99.90
9658;DHT22;4867;48.112;11.622;2022-09-16T01:14:02;14.20;99.90
9658;DHT22;4867;48.112;11.622;2022-09-16T01:37:14;14.00;99.90
9658;DHT22;4867;48.112;11.622;2022-09-16T01:39:48;14.00;99.90
9658;DHT22;4867;48.112;11.622;2022-09-16T01:45:35;13.90;99.90
9658;DHT22;4867;48.112;11.622;2022-09-16T01:50:40;13.90;99.90
9658;DHT22;4867;48.112;11.622;2022-09-16T01:53:47;13.80;99.90
9658;DHT22;4867;48.112;11.622;2022-09-16T01:56:41;13.80;99.90
9658;DHT22;4867;48.112;11.622;2022-09-16T02:02:16;13.80;99.90
9658;DHT22;4867;48.112;11.622;2022-09-16T02:04:53;13.80;99.90
9658;DHT22;4867;48.112;11.622;2022-09-16T02:07:28;13.80;99.90
9658;DHT22;4867;48.112;11.622;2022-09-16T02:10:02;13.80;99.90
9658;DHT22;4867;48.112;11.622;2022-09-16T02:12:34;13.80;99.90
9658;DHT22;4867;48.112;11.622;2022-09-16T02:15:07;13.90;99.90
9658;DHT22;4867;48.112;11.622;2022-09-16T02:17:41;13.90;99.90
9658;DHT22;4867;48.112;11.622;2022-09-16T02:20:18;13.90;99.90
9658;DHT22;4867;48.112;11.622;2022-09-16T02:22:51;14.00;99.90
9658;DHT22;4867;48.112;11.622;2022-09-16T02:25:22;14.00;99.90
9658;DHT22;4867;48.112;11.622;2022-09-16T02:27:52;14.10;99.90
9658;DHT22;4867;48.112;11.622;2022-09-16T02:30:21;14.00;99.90
9658;DHT22;4867;48.112;11.622;2022-09-16T02:33:03;14.20;99.90
9658;DHT22;4867;48.112;11.622;2022-09-16T02:35:33;14.20;99.90
9658;DHT22;4867;48.112;11.622;2022-09-16T02:38:13;14.10;99.90
9658;DHT22;4867;48.112;11.622;2022-09-16T02:40:49;14.20;99.90
9658;DHT22;4867;48.112;11.622;2022-09-16T02:43:18;14.10;99.90
9658;DHT22;4867;48.112;11.622;2022-09-16T02:54:14;14.20;99.90
9658;DHT22;4867;48.112;11.622;2022-09-16T02:56:44;14.20;99.90
9658;DHT22;4867;48.112;11.622;2022-09-16T02:59:13;14.10;99.90
9658;DHT22;4867;48.112;11.622;2022-09-16T03:01:45;14.20;99.90
9658;DHT22;4867;48.112;11.622;2022-09-16T03:04:18;14.20;99.90
9658;DHT22;4867;48.112;11.622;2022-09-16T03:06:46;14.10;99.90
9658;DHT22;4867;48.112;11.622;2022-09-16T03:09:15;14.10;99.90
9658;DHT22;4867;48.112;11.622;2022-09-16T03:12:02;14.10;99.90
9658;DHT22;4867;48.112;11.622;2022-09-16T03:14:37;14.20;99.90
9658;DHT22;4867;48.112;11.622;2022-09-16T03:31:27;14.00;99.90
9658;DHT22;4867;48.112;11.622;2022-09-16T03:36:36;13.90;99.90
9658;DHT22;4867;48.112;11.622;2022-09-16T03:39:09;13.90;99.90
9658;DHT22;4867;48.112;11.622;2022-09-16T03:41:44;14.00;99.90
9658;DHT22;4867;48.112;11.622;2022-09-16T03:44:12;13.90;99.90
9658;DHT22;4867;48.112;11.622;2022-09-16T03:46:39;13.90;99.90
9658;DHT22;4867;48.112;11.622;2022-09-16T03:49:11;13.90;99.90
9658;DHT22;4867;48.112;11.622;2022-09-16T03:51:41;14.00;99.90
9658;DHT22;4867;48.112;11.622;2022-09-16T03:54:09;13.90;99.90
9658;DHT22;4867;48.112;11.622;2022-09-16T03:56:38;14.00;99.90
9658;DHT22;4867;48.112;11.622;2022-09-16T03:59:09;13.90;99.90
9658;DHT22;4867;48.112;11.622;2022-09-16T04:01:36;14.00;99.90
9658;DHT22;4867;48.112;11.622;2022-09-16T04:04:04;14.00;99.90
9658;DHT22;4867;48.112;11.622;2022-09-16T04:06:33;13.90;99.90
9658;DHT22;4867;48.112;11.622;2022-09-16T04:09:03;13.90;99.90
9658;DHT22;4867;48.112;11.622;2022-09-16T04:11:33;14.00;99.90
9658;DHT22;4867;48.112;11.622;2022-09-16T04:14:03;14.00;99.90
9658;DHT22;4867;48.112;11.622;2022-09-16T04:16:32;14.00;99.90
9658;DHT22;4867;48.112;11.622;2022-09-16T04:19:02;13.90;99.90
9658;DHT22;4867;48.112;11.622;2022-09-16T04:21:33;14.00;99.90
9658;DHT22;4867;48.112;11.622;2022-09-16T04:24:01;14.00;99.90
9658;DHT22;4867;48.112;11.622;2022-09-16T04:26:32;14.00;99.90
9658;DHT22;4867;48.112;11.622;2022-09-16T04:28:59;13.90;99.90
9658;DHT22;4867;48.112;11.622;2022-09-16T04:31:27;13.80;99.90
9658;DHT22;4867;48.112;11.622;2022-09-16T04:33:55;13.70;99.90
9658;DHT22;4867;48.112;11.622;2022-09-16T04:36:24;13.80;99.90
9658;DHT22;4867;48.112;11.622;2022-09-16T04:38:56;13.80;99.90
9658;DHT22;4867;48.112;11.622;2022-09-16T04:41:36;13.80;99.90
9658;DHT22;4867;48.112;11.622;2022-09-16T04:44:06;13.80;99.90
9658;DHT22;4867;48.112;11.622;2022-09-16T04:46:33;13.70;99.90
9658;DHT22;4867;48.112;11.622;2022-09-16T04:49:01;13.80;99.90
9658;DHT22;4867;48.112;11.622;2022-09-16T04:51:29;13.80;99.90
9658;DHT22;4867;48.112;11.622;2022-09-16T04:53:59;13.90;99.90
9658;DHT22;4867;48.112;11.622;2022-09-16T04:56:30;13.90;99.90
9658;DHT22;4867;48.112;11.622;2022-09-16T04:59:02;13.90;99.90
9658;DHT22;4867;48.112;11.622;2022-09-16T05:01:37;13.90;99.90
9658;DHT22;4867;48.112;11.622;2022-09-16T05:04:06;13.90;99.90
9658;DHT22;4867;48.112;11.622;2022-09-16T05:06:36;13.90;99.90
9658;DHT22;4867;48.112;11.622;2022-09-16T05:09:04;13.90;99.90
9658;DHT22;4867;48.112;11.622;2022-09-16T05:11:34;13.90;99.90
9658;DHT22;4867;48.112;11.622;2022-09-16T05:14:08;13.90;99.90
9658;DHT22;4867;48.112;11.622;2022-09-16T05:16:37;13.90;99.90
9658;DHT22;4867;48.112;11.622;2022-09-16T05:19:04;13.80;99.90
9658;DHT22;4867;48.112;11.622;2022-09-16T05:21:34;13.90;99.90
9658;DHT22;4867;48.112;11.622;2022-09-16T05:24:06;13.90;99.90
9658;DHT22;4867;48.112;11.622;2022-09-16T05:26:39;13.80;99.90
9658;DHT22;4867;48.112;11.622;2022-09-16T05:29:14;14.20;99.90
9658;DHT22;4867;48.112;11.622;2022-09-16T05:31:44;13.90;99.90
9658;DHT22;4867;48.112;11.622;2022-09-16T05:34:19;14.00;99.90
9658;DHT22;4867;48.112;11.622;2022-09-16T05:36:49;13.80;99.90
9658;DHT22;4867;48.112;11.622;2022-09-16T05:39:20;13.70;99.90
9658;DHT22;4867;48.112;11.622;2022-09-16T05:41:58;13.80;99.90
9658;DHT22;4867;48.112;11.622;2022-09-16T05:44:28;13.80;99.90
9658;DHT22;4867;48.112;11.622;2022-09-16T05:46:57;13.80;99.90
9658;DHT22;4867;48.112;11.622;2022-09-16T05:49:24;14.00;99.90
9658;DHT22;4867;48.112;11.622;2022-09-16T05:51:52;13.90;99.90
9658;DHT22;4867;48.112;11.622;2022-09-16T05:54:21;13.80;99.90
9658;DHT22;4867;48.112;11.622;2022-09-16T05:56:51;14.00;99.90
9658;DHT22;4867;48.112;11.622;2022-09-16T05:59:20;14.10;99.90
9658;DHT22;4867;48.112;11.622;2022-09-16T06:01:51;14.10;99.90
9658;DHT22;4867;48.112;11.622;2022-09-16T06:04:21;14.20;99.90
9658;DHT22;4867;48.112;11.622;2022-09-16T06:06:49;14.30;99.90
9658;DHT22;4867;48.112;11.622;2022-09-16T06:09:20;14.40;99.90
9658;DHT22;4867;48.112;11.622;2022-09-16T06:11:49;14.50;99.90
9658;DHT22;4867;48.112;11.622;2022-09-16T06:14:18;14.70;99.90
9658;DHT22;4867;48.112;11.622;2022-09-16T06:16:45;14.70;99.90
9658;DHT22;4867;48.112;11.622;2022-09-16T06:19:16;14.80;99.90
9658;DHT22;4867;48.112;11.622;2022-09-16T06:21:45;15.00;99.90
9658;DHT22;4867;48.112;11.622;2022-09-16T06:24:14;14.80;99.90
9658;DHT22;4867;48.112;11.622;2022-09-16T06:26:45;15.00;99.90
9658;DHT22;4867;48.112;11.622;2022-09-16T06:29:15;14.70;99.90
9658;DHT22;4867;48.112;11.622;2022-09-16T06:31:43;14.80;99.90
9658;DHT22;4867;48.112;11.622;2022-09-16T06:34:15;14.80;99.90
9658;DHT22;4867;48.112;11.622;2022-09-16T06:36:45;14.80;99.90
9658;DHT22;4867;48.112;11.622;2022-09-16T06:39:14;14.80;99.90
9658;DHT22;4867;48.112;11.622;2022-09-16T06:41:42;15.00;99.90
9658;DHT22;4867;48.112;11.622;2022-09-16T06:44:10;14.90;99.90
9658;DHT22;4867;48.112;11.622;2022-09-16T06:46:39;14.90;99.90
9658;DHT22;4867;48.112;11.622;2022-09-16T06:49:09;14.90;99.90
9658;DHT22;4867;48.112;11.622;2022-09-16T06:51:37;14.90;99.90
9658;DHT22;4867;48.112;11.622;2022-09-16T06:54:06;14.90;99.90
9658;DHT22;4867;48.112;11.622;2022-09-16T06:56:35;15.00;99.90
9658;DHT22;4867;48.112;11.622;2022-09-16T06:59:05;15.00;99.90
9658;DHT22;4867;48.112;11.622;2022-09-16T07:01:34;15.00;99.90
9658;DHT22;4867;48.112;11.622;2022-09-16T07:04:04;15.00;99.90
9658;DHT22;4867;48.112;11.622;2022-09-16T07:06:33;15.00;99.90
9658;DHT22;4867;48.112;11.622;2022-09-16T07:09:22;15.10;99.90
9658;DHT22;4867;48.112;11.622;2022-09-16T07:11:50;15.10;99.90
9658;DHT22;4867;48.112;11.622;2022-09-16T07:14:17;15.20;99.90
9658;DHT22;4867;48.112;11.622;2022-09-16T07:16:44;15.10;99.90
9658;DHT22;4867;48.112;11.622;2022-09-16T07:19:12;15.10;99.90
9658;DHT22;4867;48.112;11.622;2022-09-16T07:21:39;15.10;99.90
9658;DHT22;4867;48.112;11.622;2022-09-16T07:24:08;15.20;99.90
9658;DHT22;4867;48.112;11.622;2022-09-16T07:26:38;15.20;99.90
9658;DHT22;4867;48.112;11.622;2022-09-16T07:29:10;15.30;99.90
9658;DHT22;4867;48.112;11.622;2022-09-16T07:31:37;15.20;99.90
9658;DHT22;4867;48.112;11.622;2022-09-16T07:34:06;15.30;99.90
9658;DHT22;4867;48.112;11.622;2022-09-16T07:36:41;15.20;99.90
9658;DHT22;4867;48.112;11.622;2022-09-16T07:39:10;15.20;99.90
9658;DHT22;4867;48.112;11.622;2022-09-16T07:41:41;15.30;99.90
9658;DHT22;4867;48.112;11.622;2022-09-16T07:44:13;15.30;99.90
9658;DHT22;4867;48.112;11.622;2022-09-16T07:46:41;15.40;99.90
9658;DHT22;4867;48.112;11.622;2022-09-16T07:49:11;15.40;99.90
9658;DHT22;4867;48.112;11.622;2022-09-16T07:51:39;15.40;99.90
9658;DHT22;4867;48.112;11.622;2022-09-16T07:54:10;15.50;99.90
9658;DHT22;4867;48.112;11.622;2022-09-16T07:56:39;15.40;99.90
9658;DHT22;4867;48.112;11.622;2022-09-16T07:59:17;15.50;99.90
9658;DHT22;4867;48.112;11.622;2022-09-16T08:01:47;15.50;99.90
9658;DHT22;4867;48.112;11.622;2022-09-16T08:04:17;15.50;99.90
9658;DHT22;4867;48.112;11.622;2022-09-16T08:06:48;15.50;99.90
9658;DHT22;4867;48.112;11.622;2022-09-16T08:09:15;15.60;99.90
9658;DHT22;4867;48.112;11.622;2022-09-16T08:12:04;15.70;99.90
9658;DHT22;4867;48.112;11.622;2022-09-16T08:14:31;15.80;99.90
9658;DHT22;4867;48.112;11.622;2022-09-16T08:17:00;15.90;99.90
9658;DHT22;4867;48.112;11.622;2022-09-16T08:19:28;16.00;99.90
9658;DHT22;4867;48.112;11.622;2022-09-16T08:21:57;16.00;99.90
9658;DHT22;4867;48.112;11.622;2022-09-16T08:24:24;16.10;99.90
9658;DHT22;4867;48.112;11.622;2022-09-16T08:26:53;16.20;99.90
9658;DHT22;4867;48.112;11.622;2022-09-16T08:29:22;16.20;99.90
9658;DHT22;4867;48.112;11.622;2022-09-16T08:31:52;16.20;99.90
9658;DHT22;4867;48.112;11.622;2022-09-16T08:34:19;16.10;99.90
9658;DHT22;4867;48.112;11.622;2022-09-16T08:36:47;16.20;99.90
9658;DHT22;4867;48.112;11.622;2022-09-16T08:39:15;16.20;99.90
9658;DHT22;4867;48.112;11.622;2022-09-16T08:44:56;16.30;99.90
9658;DHT22;4867;48.112;11.622;2022-09-16T08:47:49;16.40;99.90
9658;DHT22;4867;48.112;11.622;2022-09-16T08:50:25;16.50;99.90
9658;DHT22;4867;48.112;11.622;2022-09-16T08:52:58;16.50;99.90
9658;DHT22;4867;48.112;11.622;2022-09-16T08:55:34;16.50;99.90
9658;DHT22;4867;48.112;11.622;2022-09-16T08:58:13;16.50;99.90
9658;DHT22;4867;48.112;11.622;2022-09-16T09:00:43;16.50;99.90
9658;DHT22;4867;48.112;11.622;2022-09-16T09:05:53;16.60;99.90
9658;DHT22;4867;48.112;11.622;2022-09-16T09:14:02;16.80;99.90
9658;DHT22;4867;48.112;11.622;2022-09-16T09:27:51;16.60;99.90
9658;DHT22;4867;48.112;11.622;2022-09-16T09:30:23;16.50;99.90
9658;DHT22;4867;48.112;11.622;2022-09-16T09:41:30;16.40;99.90
9658;DHT22;4867;48.112;11.622;2022-09-16T09:46:59;16.30;99.90
9658;DHT22;4867;48.112;11.622;2022-09-16T09:49:42;16.30;99.90
9658;DHT22;4867;48.112;11.622;2022-09-16T09:52:25;16.40;99.90
9658;DHT22;4867;48.112;11.622;2022-09-16T09:54:54;16.30;99.90
9658;DHT22;4867;48.112;11.622;2022-09-16T09:57:39;16.40;99.90
9658;DHT22;4867;48.112;11.622;2022-09-16T10:00:17;16.30;99.90
9658;DHT22;4867;48.112;11.622;2022-09-16T10:02:45;16.10;99.90
9658;DHT22;4867;48.112;11.622;2022-09-16T10:08:01;16.10;99.90
9658;DHT22;4867;48.112;11.622;2022-09-16T10:10:33;16.00;99.90
9658;DHT22;4867;48.112;11.622;2022-09-16T10:13:09;16.00;99.90
9658;DHT22;4867;48.112;11.622;2022-09-16T10:15:36;16.10;99.90
9658;DHT22;4867;48.112;11.622;2022-09-16T10:18:13;16.00;99.90
9658;DHT22;4867;48.112;11.622;2022-09-16T10:20:43;16.10;99.90
9658;DHT22;4867;48.112;11.622;2022-09-16T10:23:22;16.00;99.90
9658;DHT22;4867;48.112;11.622;2022-09-16T10:26:20;16.00;99.90
9658;DHT22;4867;48.112;11.622;2022-09-16T10:28:53;16.10;99.90
9658;DHT22;4867;48.112;11.622;2022-09-16T10:31:24;16.10;99.90
9658;DHT22;4867;48.112;11.622;2022-09-16T10:33:59;16.10;99.90
9658;DHT22;4867;48.112;11.622;2022-09-16T10:36:34;16.00;99.90
9658;DHT22;4867;48.112;11.622;2022-09-16T10:39:03;15.90;99.90
9658;DHT22;4867;48.112;11.622;2022-09-16T10:41:40;15.90;99.90
9658;DHT22;4867;48.112;11.622;2022-09-16T10:44:27;15.80;99.90
9658;DHT22;4867;48.112;11.622;2022-09-16T10:47:05;15.80;99.90
9658;DHT22;4867;48.112;11.622;2022-09-16T10:49:51;15.70;99.90
9658;DHT22;4867;48.112;11.622;2022-09-16T10:52:31;15.70;99.90
9658;DHT22;4867;48.112;11.622;2022-09-16T10:55:28;15.70;99.90
9658;DHT22;4867;48.112;11.622;2022-09-16T10:58:07;15.70;99.90
9658;DHT22;4867;48.112;11.622;2022-09-16T11:00:50;15.50;99.90
9658;DHT22;4867;48.112;11.622;2022-09-16T11:09:19;15.70;99.90
9658;DHT22;4867;48.112;11.622;2022-09-16T11:12:00;15.80;99.90
9658;DHT22;4867;48.112;11.622;2022-09-16T11:17:44;15.80;99.90
9658;DHT22;4867;48.112;11.622;2022-09-16T11:28:49;14.80;99.90
9658;DHT22;4867;48.112;11.622;2022-09-16T11:34:45;14.30;99.90
9658;DHT22;4867;48.112;11.622;2022-09-16T11:37:20;14.10;99.90
9658;DHT22;4867;48.112;11.622;2022-09-16T11:40:08;13.80;99.90
9658;DHT22;4867;48.112;11.622;2022-09-16T11:51:10;13.00;99.90
9658;DHT22;4867;48.112;11.622;2022-09-16T11:56:43;12.70;99.90
9658;DHT22;4867;48.112;11.622;2022-09-16T11:59:29;12.40;99.90
9658;DHT22;4867;48.112;11.622;2022-09-16T12:04:55;12.30;99.90
9658;DHT22;4867;48.112;11.622;2022-09-16T12:07:33;12.10;99.90
9658;DHT22;4867;48.112;11.622;2022-09-16T12:10:13;12.00;99.90
9658;DHT22;4867;48.112;11.622;2022-09-16T12:12:52;12.00;99.90
9658;DHT22;4867;48.112;11.622;2022-09-16T12:15:24;11.90;99.90
9658;DHT22;4867;48.112;11.622;2022-09-16T12:17:57;11.90;99.90
9658;DHT22;4867;48.112;11.622;2022-09-16T12:20:29;11.90;99.90
9658;DHT22;4867;48.112;11.622;2022-09-16T12:23:26;12.00;99.90
9658;DHT22;4867;48.112;11.622;2022-09-16T12:26:15;12.30;99.90
9658;DHT22;4867;48.112;11.622;2022-09-16T12:28:55;12.30;99.90
9658;DHT22;4867;48.112;11.622;2022-09-16T12:31:29;12.30;99.90
9658;DHT22;4867;48.112;11.622;2022-09-16T12:34:04;12.20;99.90
9658;DHT22;4867;48.112;11.622;2022-09-16T12:36:38;12.10;99.90
9658;DHT22;4867;48.112;11.622;2022-09-16T12:39:10;12.20;99.90
9658;DHT22;4867;48.112;11.622;2022-09-16T12:42:16;12.30;99.90
9658;DHT22;4867;48.112;11.622;2022-09-16T12:48:01;12.20;99.90
9658;DHT22;4867;48.112;11.622;2022-09-16T12:59:27;12.10;99.90
9658;DHT22;4867;48.112;11.622;2022-09-16T13:02:03;12.20;99.90
9658;DHT22;4867;48.112;11.622;2022-09-16T13:04:38;12.30;99.90
9658;DHT22;4867;48.112;11.622;2022-09-16T13:07:06;12.40;99.90
9658;DHT22;4867;48.112;11.622;2022-09-16T13:09:38;12.30;99.90
9658;DHT22;4867;48.112;11.622;2022-09-16T13:12:19;12.10;99.90
9658;DHT22;4867;48.112;11.622;2022-09-16T13:15:08;12.10;99.90
9658;DHT22;4867;48.112;11.622;2022-09-16T13:17:48;12.10;99.90
9658;DHT22;4867;48.112;11.622;2022-09-16T13:20:33;12.00;99.90
9658;DHT22;4867;48.112;11.622;2022-09-16T13:23:15;12.00;99.90
9658;DHT22;4867;48.112;11.622;2022-09-16T13:25:59;12.00;99.90
9658;DHT22;4867;48.112;11.622;2022-09-16T13:33:45;12.20;99.90
9658;DHT22;4867;48.112;11.622;2022-09-16T13:38:48;12.30;99.90
9658;DHT22;4867;48.112;11.622;2022-09-16T13:41:41;12.30;99.90
9658;DHT22;4867;48.112;11.622;2022-09-16T13:49:48;12.50;99.90
9658;DHT22;4867;48.112;11.622;2022-09-16T13:52:35;12.70;99.90
9658;DHT22;4867;48.112;11.622;2022-09-16T13:55:04;12.90;99.90
9658;DHT22;4867;48.112;11.622;2022-09-16T14:00:46;12.80;99.90
9658;DHT22;4867;48.112;11.622;2022-09-16T14:06:49;12.80;99.90
9658;DHT22;4867;48.112;11.622;2022-09-16T14:09:36;12.90;99.90
9658;DHT22;4867;48.112;11.622;2022-09-16T14:12:39;12.80;99.90
9658;DHT22;4867;48.112;11.622;2022-09-16T14:15:10;12.60;99.90
9658;DHT22;4867;48.112;11.622;2022-09-16T14:17:41;12.60;99.90
9658;DHT22;4867;48.112;11.622;2022-09-16T14:20:19;12.60;99.90
9658;DHT22;4867;48.112;11.622;2022-09-16T14:22:47;12.50;99.90
9658;DHT22;4867;48.112;11.622;2022-09-16T14:25:47;12.40;99.90
9658;DHT22;4867;48.112;11.622;2022-09-16T14:28:22;12.50;99.90
9658;DHT22;4867;48.112;11.622;2022-09-16T14:30:54;12.50;99.90
9658;DHT22;4867;48.112;11.622;2022-09-16T14:33:59;12.50;99.90
9658;DHT22;4867;48.112;11.622;2022-09-16T14:36:25;12.50;99.90
9658;DHT22;4867;48.112;11.622;2022-09-16T14:39:00;12.60;99.90
9658;DHT22;4867;48.112;11.622;2022-09-16T14:41:36;12.60;99.90
9658;DHT22;4867;48.112;11.622;2022-09-16T14:46:47;12.70;99.90
9658;DHT22;4867;48.112;11.622;2022-09-16T14:49:16;12.70;99.90
9658;DHT22;4867;48.112;11.622;2022-09-16T14:52:13;12.80;99.90
9658;DHT22;4867;48.112;11.622;2022-09-16T14:54:43;12.80;99.90
9658;DHT22;4867;48.112;11.622;2022-09-16T14:57:21;12.80;99.90
9658;DHT22;4867;48.112;11.622;2022-09-16T14:59:55;12.80;99.90
9658;DHT22;4867;48.112;11.622;2022-09-16T15:05:25;12.80;99.90
9658;DHT22;4867;48.112;11.622;2022-09-16T15:10:44;12.90;99.90
9658;DHT22;4867;48.112;11.622;2022-09-16T15:13:23;12.80;99.90
9658;DHT22;4867;48.112;11.622;2022-09-16T15:16:00;12.80;99.90
9658;DHT22;4867;48.112;11.622;2022-09-16T15:18:33;12.90;99.90
9658;DHT22;4867;48.112;11.622;2022-09-16T15:23:38;12.90;99.90
9658;DHT22;4867;48.112;11.622;2022-09-16T15:26:14;12.90;99.90
9658;DHT22;4867;48.112;11.622;2022-09-16T15:29:02;12.90;99.90
9658;DHT22;4867;48.112;11.622;2022-09-16T15:31:31;12.90;99.90
9658;DHT22;4867;48.112;11.622;2022-09-16T15:34:03;12.80;99.90
9658;DHT22;4867;48.112;11.622;2022-09-16T15:39:00;12.80;99.90
9658;DHT22;4867;48.112;11.622;2022-09-16T15:41:27;12.80;99.90
9658;DHT22;4867;48.112;11.622;2022-09-16T15:43:54;12.80;99.90
9658;DHT22;4867;48.112;11.622;2022-09-16T15:46:23;12.80;99.90
9658;DHT22;4867;48.112;11.622;2022-09-16T15:48:54;12.90;99.90
9658;DHT22;4867;48.112;11.622;2022-09-16T15:51:32;12.80;99.90
9658;DHT22;4867;48.112;11.622;2022-09-16T15:54:22;12.80;99.90
9658;DHT22;4867;48.112;11.622;2022-09-16T15:59:39;12.60;99.90
9658;DHT22;4867;48.112;11.622;2022-09-16T16:05:13;12.70;99.90
9658;DHT22;4867;48.112;11.622;2022-09-16T16:07:52;12.60;99.90
9658;DHT22;4867;48.112;11.622;2022-09-16T16:10:23;12.60;99.90
9658;DHT22;4867;48.112;11.622;2022-09-16T16:15:35;12.60;99.90
9658;DHT22;4867;48.112;11.622;2022-09-16T16:18:05;12.60;99.90
9658;DHT22;4867;48.112;11.622;2022-09-16T16:20:35;12.60;99.90
9658;DHT22;4867;48.112;11.622;2022-09-16T16:23:03;12.60;99.90
9658;DHT22;4867;48.112;11.622;2022-09-16T16:25:30;12.60;99.90
9658;DHT22;4867;48.112;11.622;2022-09-16T16:27:57;12.60;99.90
9658;DHT22;4867;48.112;11.622;2022-09-16T16:30:25;12.60;99.90
9658;DHT22;4867;48.112;11.622;2022-09-16T16:32:52;12.60;99.90
9658;DHT22;4867;48.112;11.622;2022-09-16T16:35:19;12.60;99.90
9658;DHT22;4867;48.112;11.622;2022-09-16T16:37:47;12.60;99.90
9658;DHT22;4867;48.112;11.622;2022-09-16T16:40:14;12.60;99.90
9658;DHT22;4867;48.112;11.622;2022-09-16T16:42:42;12.70;99.90
9658;DHT22;4867;48.112;11.622;2022-09-16T16:45:11;12.60;99.90
9658;DHT22;4867;48.112;11.622;2022-09-16T16:47:40;12.60;99.90
9658;DHT22;4867;48.112;11.622;2022-09-16T16:50:07;12.50;99.90
9658;DHT22;4867;48.112;11.622;2022-09-16T16:52:35;12.50;99.90
9658;DHT22;4867;48.112;11.622;2022-09-16T16:55:02;12.50;99.90
9658;DHT22;4867;48.112;11.622;2022-09-16T16:57:30;12.50;99.90
9658;DHT22;4867;48.112;11.622;2022-09-16T16:59:57;12.40;99.90
9658;DHT22;4867;48.112;11.622;2022-09-16T17:02:25;12.40;99.90
9658;DHT22;4867;48.112;11.622;2022-09-16T17:04:52;12.40;99.90
9658;DHT22;4867;48.112;11.622;2022-09-16T17:07:19;12.40;99.90
9658;DHT22;4867;48.112;11.622;2022-09-16T17:09:53;12.30;99.90
9658;DHT22;4867;48.112;11.622;2022-09-16T17:12:23;12.30;99.90
9658;DHT22;4867;48.112;11.622;2022-09-16T17:14:50;12.20;99.90
9658;DHT22;4867;48.112;11.622;2022-09-16T17:17:17;12.20;99.90
9658;DHT22;4867;48.112;11.622;2022-09-16T17:19:45;12.20;99.90
9658;DHT22;4867;48.112;11.622;2022-09-16T17:22:12;12.20;99.90
9658;DHT22;4867;48.112;11.622;2022-09-16T17:24:39;12.20;99.90
9658;DHT22;4867;48.112;11.622;2022-09-16T17:27:06;12.20;99.90
9658;DHT22;4867;48.112;11.622;2022-09-16T17:29:33;12.10;99.90
9658;DHT22;4867;48.112;11.622;2022-09-16T17:32:01;12.10;99.90
9658;DHT22;4867;48.112;11.622;2022-09-16T17:34:29;12.10;99.90
9658;DHT22;4867;48.112;11.622;2022-09-16T17:36:57;12.00;99.90
9658;DHT22;4867;48.112;11.622;2022-09-16T17:39:25;12.00;99.90
9658;DHT22;4867;48.112;11.622;2022-09-16T17:41:52;12.00;99.90
9658;DHT22;4867;48.112;11.622;2022-09-16T17:44:22;12.00;99.90
9658;DHT22;4867;48.112;11.622;2022-09-16T17:46:50;12.00;99.90
9658;DHT22;4867;48.112;11.622;2022-09-16T17:49:22;11.90;99.90
9658;DHT22;4867;48.112;11.622;2022-09-16T17:51:50;11.90;99.90
9658;DHT22;4867;48.112;11.622;2022-09-16T17:54:18;11.80;99.90
9658;DHT22;4867;48.112;11.622;2022-09-16T17:56:45;11.80;99.90
9658;DHT22;4867;48.112;11.622;2022-09-16T17:59:15;11.70;99.90
9658;DHT22;4867;48.112;11.622;2022-09-16T18:01:43;11.70;99.90
9658;DHT22;4867;48.112;11.622;2022-09-16T18:04:11;11.70;99.90
9658;DHT22;4867;48.112;11.622;2022-09-16T18:06:41;11.70;99.90
9658;DHT22;4867;48.112;11.622;2022-09-16T18:09:09;11.70;99.90
9658;DHT22;4867;48.112;11.622;2022-09-16T18:11:38;11.70;99.90
9658;DHT22;4867;48.112;11.622;2022-09-16T18:14:08;11.90;99.90
9658;DHT22;4867;48.112;11.622;2022-09-16T18:16:36;11.70;99.90
9658;DHT22;4867;48.112;11.622;2022-09-16T18:19:03;11.60;99.90
9658;DHT22;4867;48.112;11.622;2022-09-16T18:21:32;11.60;99.90
9658;DHT22;4867;48.112;11.622;2022-09-16T18:24:02;11.60;99.90
9658;DHT22;4867;48.112;11.622;2022-09-16T18:26:32;11.60;99.90
9658;DHT22;4867;48.112;11.622;2022-09-16T18:29:00;11.60;99.90
9658;DHT22;4867;48.112;11.622;2022-09-16T18:31:39;11.70;99.90
9658;DHT22;4867;48.112;11.622;2022-09-16T18:34:07;11.70;99.90
9658;DHT22;4867;48.112;11.622;2022-09-16T18:36:35;11.70;99.90
9658;DHT22;4867;48.112;11.622;2022-09-16T18:39:04;11.70;99.90
9658;DHT22;4867;48.112;11.622;2022-09-16T18:41:37;11.80;99.90
9658;DHT22;4867;48.112;11.622;2022-09-16T18:44:09;11.70;99.90
9658;DHT22;4867;48.112;11.622;2022-09-16T18:46:37;11.80;99.90
9658;DHT22;4867;48.112;11.622;2022-09-16T18:49:05;11.70;99.90
9658;DHT22;4867;48.112;11.622;2022-09-16T18:51:35;11.70;99.90
9658;DHT22;4867;48.112;11.622;2022-09-16T18:54:05;11.70;99.90
9658;DHT22;4867;48.112;11.622;2022-09-16T18:56:35;11.70;99.90
9658;DHT22;4867;48.112;11.622;2022-09-16T18:59:04;11.60;99.90
9658;DHT22;4867;48.112;11.622;2022-09-16T19:01:54;11.70;99.90
9658;DHT22;4867;48.112;11.622;2022-09-16T19:04:24;11.60;99.90
9658;DHT22;4867;48.112;11.622;2022-09-16T19:06:55;11.70;99.90
9658;DHT22;4867;48.112;11.622;2022-09-16T19:09:25;11.70;99.90
9658;DHT22;4867;48.112;11.622;2022-09-16T19:11:52;11.70;99.90
9658;DHT22;4867;48.112;11.622;2022-09-16T19:14:21;11.70;99.90
9658;DHT22;4867;48.112;11.622;2022-09-16T19:16:51;11.60;99.90
9658;DHT22;4867;48.112;11.622;2022-09-16T19:19:19;11.60;99.90